sensor_id;sensor_type;location;lat;lon;timestamp;pressure;altitude;pressure_sealevel;temperature;humidity
66430;BME280;53242;51.694;10.006;2023-03-11T00:01:12;97909.06;;;0.76;90.56
66430;BME280;53242;51.694;10.006;2023-03-11T00:03:35;97923.97;;;0.82;89.82
66430;BME280;53242;51.694;10.006;2023-03-11T00:06:00;97913.03;;;0.87;89.49
66430;BME280;53242;51.694;10.006;2023-03-11T00:08:23;97927.72;;;0.80;89.05
66430;BME280;53242;51.694;10.006;2023-03-11T00:10:50;97945.19;;;0.86;88.44
66430;BME280;53242;51.694;10.006;2023-03-11T00:13:14;97953.03;;;0.78;89.21
66430;BME280;53242;51.694;10.006;2023-03-11T00:15:37;97946.50;;;0.82;88.44
66430;BME280;53242;51.694;10.006;2023-03-11T00:18:00;97959.53;;;0.74;89.47
66430;BME280;53242;51.694;10.006;2023-03-11T00:20:29;97975.31;;;0.72;90.07
66430;BME280;53242;51.694;10.006;2023-03-11T00:22:52;97976.81;;;0.58;90.44
66430;BME280;53242;51.694;10.006;2023-03-11T00:25:16;97982.91;;;0.74;90.57
66430;BME280;53242;51.694;10.006;2023-03-11T00:27:38;97986.31;;;0.74;90.26
66430;BME280;53242;51.694;10.006;2023-03-11T00:30:01;97995.25;;;0.72;90.33
66430;BME280;53242;51.694;10.006;2023-03-11T00:32:23;97988.28;;;0.72;90.32
66430;BME280;53242;51.694;10.006;2023-03-11T00:34:45;98000.75;;;0.77;90.21
66430;BME280;53242;51.694;10.006;2023-03-11T00:37:08;98004.47;;;0.74;90.35
66430;BME280;53242;51.694;10.006;2023-03-11T00:39:30;98002.50;;;0.85;89.48
66430;BME280;53242;51.694;10.006;2023-03-11T00:41:53;98008.84;;;0.82;90.16
66430;BME280;53242;51.694;10.006;2023-03-11T00:44:17;98011.72;;;0.95;89.63
66430;BME280;53242;51.694;10.006;2023-03-11T00:46:40;98015.59;;;1.00;89.47
66430;BME280;53242;51.694;10.006;2023-03-11T00:49:02;98022.97;;;0.88;89.37
66430;BME280;53242;51.694;10.006;2023-03-11T00:51:25;98026.66;;;0.93;87.98
66430;BME280;53242;51.694;10.006;2023-03-11T00:53:47;98022.06;;;1.04;86.92
66430;BME280;53242;51.694;10.006;2023-03-11T00:56:12;98045.16;;;0.98;86.94
66430;BME280;53242;51.694;10.006;2023-03-11T00:58:36;98057.16;;;1.00;86.72
66430;BME280;53242;51.694;10.006;2023-03-11T01:00:59;98054.88;;;1.05;87.39
66430;BME280;53242;51.694;10.006;2023-03-11T01:03:21;98057.53;;;0.88;87.40
66430;BME280;53242;51.694;10.006;2023-03-11T01:05:44;98067.56;;;0.91;87.73
66430;BME280;53242;51.694;10.006;2023-03-11T01:08:07;98076.53;;;0.80;87.42
66430;BME280;53242;51.694;10.006;2023-03-11T01:10:31;98078.00;;;0.83;87.38
66430;BME280;53242;51.694;10.006;2023-03-11T01:12:54;98090.16;;;0.91;86.66
66430;BME280;53242;51.694;10.006;2023-03-11T01:15:20;98091.13;;;0.90;85.88
66430;BME280;53242;51.694;10.006;2023-03-11T01:17:42;98087.69;;;0.97;85.77
66430;BME280;53242;51.694;10.006;2023-03-11T01:20:05;98102.66;;;0.87;84.96
66430;BME280;53242;51.694;10.006;2023-03-11T01:22:30;98096.16;;;0.83;85.13
66430;BME280;53242;51.694;10.006;2023-03-11T01:24:52;98103.81;;;0.76;85.04
66430;BME280;53242;51.694;10.006;2023-03-11T01:27:15;98110.44;;;0.87;85.00
66430;BME280;53242;51.694;10.006;2023-03-11T01:29:37;98124.41;;;0.86;84.18
66430;BME280;53242;51.694;10.006;2023-03-11T01:31:59;98131.41;;;0.77;84.58
66430;BME280;53242;51.694;10.006;2023-03-11T01:34:22;98132.53;;;0.83;84.21
66430;BME280;53242;51.694;10.006;2023-03-11T01:36:44;98146.97;;;0.86;83.19
66430;BME280;53242;51.694;10.006;2023-03-11T01:39:07;98143.25;;;0.80;83.08
66430;BME280;53242;51.694;10.006;2023-03-11T01:41:29;98149.75;;;0.84;82.90
66430;BME280;53242;51.694;10.006;2023-03-11T01:43:53;98159.16;;;0.77;82.76
66430;BME280;53242;51.694;10.006;2023-03-11T01:46:36;98161.94;;;0.67;83.69
66430;BME280;53242;51.694;10.006;2023-03-11T01:49:00;98160.63;;;0.63;83.69
66430;BME280;53242;51.694;10.006;2023-03-11T01:51:32;98162.25;;;0.64;82.66
66430;BME280;53242;51.694;10.006;2023-03-11T01:54:00;98166.81;;;0.62;83.29
66430;BME280;53242;51.694;10.006;2023-03-11T01:56:24;98170.84;;;0.73;83.58
66430;BME280;53242;51.694;10.006;2023-03-11T01:58:48;98181.41;;;0.71;83.10
66430;BME280;53242;51.694;10.006;2023-03-11T02:01:13;98189.84;;;0.73;83.03
66430;BME280;53242;51.694;10.006;2023-03-11T02:03:38;98193.44;;;0.72;83.00
66430;BME280;53242;51.694;10.006;2023-03-11T02:06:05;98194.56;;;0.70;82.68
66430;BME280;53242;51.694;10.006;2023-03-11T02:08:28;98193.25;;;0.65;83.14
66430;BME280;53242;51.694;10.006;2023-03-11T02:10:55;98203.94;;;0.71;82.77
66430;BME280;53242;51.694;10.006;2023-03-11T02:13:18;98198.31;;;0.67;81.87
66430;BME280;53242;51.694;10.006;2023-03-11T02:15:42;98207.56;;;0.70;82.24
66430;BME280;53242;51.694;10.006;2023-03-11T02:18:06;98217.78;;;0.71;81.41
66430;BME280;53242;51.694;10.006;2023-03-11T02:20:38;98217.63;;;0.64;80.74
66430;BME280;53242;51.694;10.006;2023-03-11T02:23:08;98227.16;;;0.64;81.68
66430;BME280;53242;51.694;10.006;2023-03-11T02:28:17;98227.97;;;0.56;81.68
66430;BME280;53242;51.694;10.006;2023-03-11T02:30:41;98242.59;;;0.65;81.43
66430;BME280;53242;51.694;10.006;2023-03-11T02:33:04;98239.53;;;0.62;80.94
66430;BME280;53242;51.694;10.006;2023-03-11T02:35:27;98231.56;;;0.72;80.76
66430;BME280;53242;51.694;10.006;2023-03-11T02:37:52;98241.13;;;0.55;81.18
66430;BME280;53242;51.694;10.006;2023-03-11T02:40:32;98239.53;;;0.62;80.43
66430;BME280;53242;51.694;10.006;2023-03-11T02:42:59;98235.78;;;0.48;80.64
66430;BME280;53242;51.694;10.006;2023-03-11T02:45:25;98240.97;;;0.73;80.75
66430;BME280;53242;51.694;10.006;2023-03-11T02:47:48;98242.28;;;0.69;80.53
66430;BME280;53242;51.694;10.006;2023-03-11T02:50:13;98246.19;;;0.64;80.81
66430;BME280;53242;51.694;10.006;2023-03-11T02:52:36;98248.09;;;0.62;80.95
66430;BME280;53242;51.694;10.006;2023-03-11T02:54:59;98253.47;;;0.69;81.09
66430;BME280;53242;51.694;10.006;2023-03-11T02:57:21;98256.88;;;0.61;81.83
66430;BME280;53242;51.694;10.006;2023-03-11T02:59:44;98261.41;;;0.68;81.20
66430;BME280;53242;51.694;10.006;2023-03-11T03:02:06;98254.94;;;0.63;81.30
66430;BME280;53242;51.694;10.006;2023-03-11T03:04:29;98265.31;;;0.63;80.99
66430;BME280;53242;51.694;10.006;2023-03-11T03:06:53;98269.84;;;0.53;80.25
66430;BME280;53242;51.694;10.006;2023-03-11T03:09:17;98270.81;;;0.60;81.91
66430;BME280;53242;51.694;10.006;2023-03-11T03:11:40;98275.88;;;0.70;81.88
66430;BME280;53242;51.694;10.006;2023-03-11T03:14:02;98282.19;;;0.68;81.12
66430;BME280;53242;51.694;10.006;2023-03-11T03:16:25;98287.22;;;0.69;81.23
66430;BME280;53242;51.694;10.006;2023-03-11T03:18:47;98288.03;;;0.61;81.80
66430;BME280;53242;51.694;10.006;2023-03-11T03:21:10;98293.53;;;0.58;81.77
66430;BME280;53242;51.694;10.006;2023-03-11T03:23:32;98284.13;;;0.57;81.84
66430;BME280;53242;51.694;10.006;2023-03-11T03:25:56;98298.56;;;0.60;81.28
66430;BME280;53242;51.694;10.006;2023-03-11T03:28:19;98298.91;;;0.57;81.69
66430;BME280;53242;51.694;10.006;2023-03-11T03:30:42;98304.22;;;0.55;82.13
66430;BME280;53242;51.694;10.006;2023-03-11T03:33:06;98306.69;;;0.57;82.78
66430;BME280;53242;51.694;10.006;2023-03-11T03:35:29;98323.88;;;0.58;82.25
66430;BME280;53242;51.694;10.006;2023-03-11T03:38:00;98321.09;;;0.51;81.37
66430;BME280;53242;51.694;10.006;2023-03-11T03:40:22;98330.34;;;0.54;80.99
66430;BME280;53242;51.694;10.006;2023-03-11T03:42:46;98328.91;;;0.51;80.46
66430;BME280;53242;51.694;10.006;2023-03-11T03:45:09;98330.69;;;0.59;80.92
66430;BME280;53242;51.694;10.006;2023-03-11T03:47:32;98341.59;;;0.62;81.03
66430;BME280;53242;51.694;10.006;2023-03-11T03:49:55;98339.28;;;0.51;81.05
66430;BME280;53242;51.694;10.006;2023-03-11T03:52:17;98342.88;;;0.67;81.09
66430;BME280;53242;51.694;10.006;2023-03-11T03:54:40;98348.72;;;0.60;80.97
66430;BME280;53242;51.694;10.006;2023-03-11T03:57:02;98352.94;;;0.61;80.92
66430;BME280;53242;51.694;10.006;2023-03-11T03:59:28;98353.25;;;0.58;80.82
66430;BME280;53242;51.694;10.006;2023-03-11T04:01:53;98356.38;;;0.70;80.79
66430;BME280;53242;51.694;10.006;2023-03-11T04:04:16;98360.91;;;0.68;80.97
66430;BME280;53242;51.694;10.006;2023-03-11T04:06:38;98370.47;;;0.68;81.40
66430;BME280;53242;51.694;10.006;2023-03-11T04:09:02;98364.63;;;0.65;80.78
66430;BME280;53242;51.694;10.006;2023-03-11T04:11:28;98375.22;;;0.72;81.33
66430;BME280;53242;51.694;10.006;2023-03-11T04:13:51;98387.06;;;0.75;81.53
66430;BME280;53242;51.694;10.006;2023-03-11T04:16:16;98385.59;;;0.80;81.15
66430;BME280;53242;51.694;10.006;2023-03-11T04:18:39;98388.03;;;0.74;81.12
66430;BME280;53242;51.694;10.006;2023-03-11T04:21:06;98388.19;;;0.72;81.60
66430;BME280;53242;51.694;10.006;2023-03-11T04:23:29;98402.16;;;0.71;81.61
66430;BME280;53242;51.694;10.006;2023-03-11T04:25:52;98396.13;;;0.71;81.94
66430;BME280;53242;51.694;10.006;2023-03-11T04:28:15;98400.69;;;0.77;81.62
66430;BME280;53242;51.694;10.006;2023-03-11T04:30:39;98405.53;;;0.72;81.56
66430;BME280;53242;51.694;10.006;2023-03-11T04:33:01;98408.53;;;0.85;81.00
66430;BME280;53242;51.694;10.006;2023-03-11T04:35:24;98405.38;;;0.73;81.85
66430;BME280;53242;51.694;10.006;2023-03-11T04:37:47;98414.19;;;0.80;82.00
66430;BME280;53242;51.694;10.006;2023-03-11T04:40:09;98416.78;;;0.80;81.53
66430;BME280;53242;51.694;10.006;2023-03-11T04:42:32;98427.00;;;0.74;81.27
66430;BME280;53242;51.694;10.006;2023-03-11T04:44:54;98423.22;;;0.68;81.56
66430;BME280;53242;51.694;10.006;2023-03-11T04:47:17;98426.50;;;0.78;81.26
66430;BME280;53242;51.694;10.006;2023-03-11T04:49:40;98433.81;;;0.75;81.28
66430;BME280;53242;51.694;10.006;2023-03-11T04:52:02;98432.03;;;0.75;81.52
66430;BME280;53242;51.694;10.006;2023-03-11T04:54:25;98433.59;;;0.68;80.47
66430;BME280;53242;51.694;10.006;2023-03-11T04:56:48;98443.38;;;0.74;80.69
66430;BME280;53242;51.694;10.006;2023-03-11T04:59:11;98449.34;;;0.67;80.07
66430;BME280;53242;51.694;10.006;2023-03-11T05:01:35;98446.63;;;0.76;79.77
66430;BME280;53242;51.694;10.006;2023-03-11T05:03:59;98450.47;;;0.64;79.54
66430;BME280;53242;51.694;10.006;2023-03-11T05:06:22;98454.19;;;0.61;79.23
66430;BME280;53242;51.694;10.006;2023-03-11T05:08:44;98454.25;;;0.70;79.32
66430;BME280;53242;51.694;10.006;2023-03-11T05:11:07;98451.50;;;0.71;79.83
66430;BME280;53242;51.694;10.006;2023-03-11T05:13:30;98457.19;;;0.75;80.19
66430;BME280;53242;51.694;10.006;2023-03-11T05:15:52;98469.66;;;0.71;80.03
66430;BME280;53242;51.694;10.006;2023-03-11T05:18:16;98468.66;;;0.64;80.61
66430;BME280;53242;51.694;10.006;2023-03-11T05:20:38;98470.97;;;0.67;80.85
66430;BME280;53242;51.694;10.006;2023-03-11T05:23:01;98477.13;;;0.66;80.67
66430;BME280;53242;51.694;10.006;2023-03-11T05:25:26;98479.56;;;0.68;80.78
66430;BME280;53242;51.694;10.006;2023-03-11T05:27:48;98473.69;;;0.65;81.23
66430;BME280;53242;51.694;10.006;2023-03-11T05:30:12;98482.16;;;0.68;81.69
66430;BME280;53242;51.694;10.006;2023-03-11T05:32:37;98488.31;;;0.67;81.55
66430;BME280;53242;51.694;10.006;2023-03-11T05:35:01;98480.00;;;0.63;82.02
66430;BME280;53242;51.694;10.006;2023-03-11T05:37:24;98490.78;;;0.76;81.38
66430;BME280;53242;51.694;10.006;2023-03-11T05:39:48;98489.94;;;0.68;81.74
66430;BME280;53242;51.694;10.006;2023-03-11T05:42:11;98492.69;;;0.66;81.82
66430;BME280;53242;51.694;10.006;2023-03-11T05:44:34;98504.84;;;0.65;81.45
66430;BME280;53242;51.694;10.006;2023-03-11T05:46:57;98505.16;;;0.62;82.12
66430;BME280;53242;51.694;10.006;2023-03-11T05:49:20;98503.66;;;0.52;82.65
66430;BME280;53242;51.694;10.006;2023-03-11T05:51:44;98507.41;;;0.57;82.36
66430;BME280;53242;51.694;10.006;2023-03-11T05:54:06;98510.69;;;0.59;82.28
66430;BME280;53242;51.694;10.006;2023-03-11T05:56:37;98509.91;;;0.67;82.35
66430;BME280;53242;51.694;10.006;2023-03-11T05:58:59;98515.53;;;0.54;82.70
66430;BME280;53242;51.694;10.006;2023-03-11T06:01:25;98519.16;;;0.70;82.12
66430;BME280;53242;51.694;10.006;2023-03-11T06:03:48;98524.47;;;0.60;81.60
66430;BME280;53242;51.694;10.006;2023-03-11T06:06:12;98520.25;;;0.59;82.26
66430;BME280;53242;51.694;10.006;2023-03-11T06:08:35;98531.06;;;0.80;81.31
66430;BME280;53242;51.694;10.006;2023-03-11T06:11:03;98534.75;;;0.70;80.91
66430;BME280;53242;51.694;10.006;2023-03-11T06:13:26;98536.00;;;0.65;80.19
66430;BME280;53242;51.694;10.006;2023-03-11T06:15:49;98543.84;;;0.74;79.76
66430;BME280;53242;51.694;10.006;2023-03-11T06:18:12;98541.28;;;0.82;80.20
66430;BME280;53242;51.694;10.006;2023-03-11T06:20:35;98545.69;;;0.81;80.39
66430;BME280;53242;51.694;10.006;2023-03-11T06:22:59;98551.69;;;0.82;79.78
66430;BME280;53242;51.694;10.006;2023-03-11T06:25:22;98556.16;;;0.98;79.64
66430;BME280;53242;51.694;10.006;2023-03-11T06:27:49;98558.34;;;0.85;79.80
66430;BME280;53242;51.694;10.006;2023-03-11T06:30:13;98552.50;;;0.82;79.77
66430;BME280;53242;51.694;10.006;2023-03-11T06:32:44;98564.56;;;0.92;79.25
66430;BME280;53242;51.694;10.006;2023-03-11T06:35:07;98564.22;;;0.87;79.45
66430;BME280;53242;51.694;10.006;2023-03-11T06:37:29;98578.53;;;0.99;79.03
66430;BME280;53242;51.694;10.006;2023-03-11T06:39:52;98582.47;;;1.03;79.13
66430;BME280;53242;51.694;10.006;2023-03-11T06:42:17;98577.22;;;0.95;78.77
66430;BME280;53242;51.694;10.006;2023-03-11T06:44:40;98586.00;;;0.94;77.96
66430;BME280;53242;51.694;10.006;2023-03-11T06:47:02;98585.38;;;1.00;78.28
66430;BME280;53242;51.694;10.006;2023-03-11T06:49:25;98590.53;;;0.92;78.38
66430;BME280;53242;51.694;10.006;2023-03-11T06:51:47;98598.19;;;0.93;77.82
66430;BME280;53242;51.694;10.006;2023-03-11T06:54:11;98606.22;;;0.82;77.70
66430;BME280;53242;51.694;10.006;2023-03-11T06:56:33;98610.50;;;0.91;77.08
66430;BME280;53242;51.694;10.006;2023-03-11T06:59:00;98612.09;;;0.84;77.13
66430;BME280;53242;51.694;10.006;2023-03-11T07:01:26;98614.63;;;1.02;76.86
66430;BME280;53242;51.694;10.006;2023-03-11T07:03:51;98607.28;;;0.97;76.04
66430;BME280;53242;51.694;10.006;2023-03-11T07:06:21;98611.06;;;1.03;77.40
66430;BME280;53242;51.694;10.006;2023-03-11T07:08:45;98618.69;;;1.05;77.08
66430;BME280;53242;51.694;10.006;2023-03-11T07:11:11;98618.00;;;0.94;76.79
66430;BME280;53242;51.694;10.006;2023-03-11T07:13:35;98626.09;;;0.91;77.13
66430;BME280;53242;51.694;10.006;2023-03-11T07:16:10;98622.44;;;1.02;76.49
66430;BME280;53242;51.694;10.006;2023-03-11T07:18:35;98634.88;;;0.90;76.38
66430;BME280;53242;51.694;10.006;2023-03-11T07:20:57;98640.81;;;1.09;76.30
66430;BME280;53242;51.694;10.006;2023-03-11T07:23:20;98639.53;;;0.87;76.83
66430;BME280;53242;51.694;10.006;2023-03-11T07:25:46;98647.19;;;0.88;76.64
66430;BME280;53242;51.694;10.006;2023-03-11T07:28:08;98652.28;;;0.98;76.87
66430;BME280;53242;51.694;10.006;2023-03-11T07:30:31;98662.88;;;1.05;77.38
66430;BME280;53242;51.694;10.006;2023-03-11T07:32:55;98671.72;;;1.20;76.52
66430;BME280;53242;51.694;10.006;2023-03-11T07:35:18;98663.03;;;1.03;77.08
66430;BME280;53242;51.694;10.006;2023-03-11T07:37:40;98666.78;;;1.09;76.27
66430;BME280;53242;51.694;10.006;2023-03-11T07:40:03;98673.38;;;1.21;74.75
66430;BME280;53242;51.694;10.006;2023-03-11T07:42:25;98668.47;;;1.18;74.60
66430;BME280;53242;51.694;10.006;2023-03-11T07:44:50;98673.63;;;1.10;75.34
66430;BME280;53242;51.694;10.006;2023-03-11T07:47:12;98677.22;;;1.17;75.61
66430;BME280;53242;51.694;10.006;2023-03-11T07:49:35;98681.41;;;1.10;75.16
66430;BME280;53242;51.694;10.006;2023-03-11T07:52:00;98686.09;;;1.06;75.39
66430;BME280;53242;51.694;10.006;2023-03-11T07:54:23;98687.41;;;1.10;75.55
66430;BME280;53242;51.694;10.006;2023-03-11T07:56:45;98694.88;;;1.05;74.83
66430;BME280;53242;51.694;10.006;2023-03-11T07:59:08;98705.44;;;1.12;75.48
66430;BME280;53242;51.694;10.006;2023-03-11T08:01:31;98718.03;;;0.98;75.08
66430;BME280;53242;51.694;10.006;2023-03-11T08:03:57;98720.28;;;0.93;75.32
66430;BME280;53242;51.694;10.006;2023-03-11T08:06:22;98715.81;;;1.04;74.64
66430;BME280;53242;51.694;10.006;2023-03-11T08:08:45;98723.81;;;1.10;75.28
66430;BME280;53242;51.694;10.006;2023-03-11T08:11:09;98735.13;;;1.01;75.19
66430;BME280;53242;51.694;10.006;2023-03-11T08:13:32;98732.44;;;1.11;74.85
66430;BME280;53242;51.694;10.006;2023-03-11T08:15:54;98738.19;;;1.23;74.93
66430;BME280;53242;51.694;10.006;2023-03-11T08:18:17;98737.84;;;1.18;74.91
66430;BME280;53242;51.694;10.006;2023-03-11T08:20:39;98732.88;;;1.33;74.79
66430;BME280;53242;51.694;10.006;2023-03-11T08:23:02;98750.41;;;1.04;74.58
66430;BME280;53242;51.694;10.006;2023-03-11T08:25:24;98763.88;;;1.26;75.05
66430;BME280;53242;51.694;10.006;2023-03-11T08:27:47;98762.34;;;1.15;74.91
66430;BME280;53242;51.694;10.006;2023-03-11T08:30:10;98768.41;;;1.24;74.65
66430;BME280;53242;51.694;10.006;2023-03-11T08:32:33;98779.78;;;1.23;74.81
66430;BME280;53242;51.694;10.006;2023-03-11T08:34:56;98776.56;;;1.55;74.11
66430;BME280;53242;51.694;10.006;2023-03-11T08:37:18;98783.22;;;1.50;74.24
66430;BME280;53242;51.694;10.006;2023-03-11T08:39:41;98788.19;;;1.43;74.80
66430;BME280;53242;51.694;10.006;2023-03-11T08:42:03;98789.88;;;1.26;75.33
66430;BME280;53242;51.694;10.006;2023-03-11T08:44:26;98796.91;;;1.34;75.52
66430;BME280;53242;51.694;10.006;2023-03-11T08:46:48;98801.38;;;1.23;75.10
66430;BME280;53242;51.694;10.006;2023-03-11T08:49:10;98813.41;;;1.24;74.85
66430;BME280;53242;51.694;10.006;2023-03-11T08:51:34;98812.09;;;1.20;74.22
66430;BME280;53242;51.694;10.006;2023-03-11T08:53:57;98815.44;;;1.12;73.96
66430;BME280;53242;51.694;10.006;2023-03-11T08:56:19;98818.81;;;1.31;74.46
66430;BME280;53242;51.694;10.006;2023-03-11T08:58:42;98817.09;;;1.40;72.83
66430;BME280;53242;51.694;10.006;2023-03-11T09:01:05;98824.69;;;1.59;73.44
66430;BME280;53242;51.694;10.006;2023-03-11T09:03:30;98827.41;;;1.76;72.75
66430;BME280;53242;51.694;10.006;2023-03-11T09:05:58;98828.34;;;1.67;72.59
66430;BME280;53242;51.694;10.006;2023-03-11T09:08:20;98837.13;;;1.47;72.78
66430;BME280;53242;51.694;10.006;2023-03-11T09:10:43;98833.41;;;1.50;72.58
66430;BME280;53242;51.694;10.006;2023-03-11T09:13:05;98833.63;;;1.83;72.56
66430;BME280;53242;51.694;10.006;2023-03-11T09:15:28;98841.22;;;1.76;72.11
66430;BME280;53242;51.694;10.006;2023-03-11T09:17:50;98846.31;;;1.86;71.89
66430;BME280;53242;51.694;10.006;2023-03-11T09:20:13;98840.16;;;1.87;71.74
66430;BME280;53242;51.694;10.006;2023-03-11T09:22:36;98844.19;;;2.16;71.62
66430;BME280;53242;51.694;10.006;2023-03-11T09:24:58;98836.00;;;2.45;69.85
66430;BME280;53242;51.694;10.006;2023-03-11T09:27:21;98847.78;;;2.58;68.87
66430;BME280;53242;51.694;10.006;2023-03-11T09:29:43;98843.66;;;2.47;69.59
66430;BME280;53242;51.694;10.006;2023-03-11T09:32:06;98843.69;;;2.55;69.87
66430;BME280;53242;51.694;10.006;2023-03-11T09:34:29;98846.66;;;2.69;69.76
66430;BME280;53242;51.694;10.006;2023-03-11T09:36:53;98850.56;;;2.73;69.54
66430;BME280;53242;51.694;10.006;2023-03-11T09:39:15;98848.69;;;2.49;70.52
66430;BME280;53242;51.694;10.006;2023-03-11T09:41:45;98859.00;;;2.58;70.32
66430;BME280;53242;51.694;10.006;2023-03-11T09:44:36;98873.47;;;2.53;68.05
66430;BME280;53242;51.694;10.006;2023-03-11T09:52:43;98874.41;;;2.43;70.83
66430;BME280;53242;51.694;10.006;2023-03-11T09:57:47;98888.16;;;2.70;70.74
66430;BME280;53242;51.694;10.006;2023-03-11T10:00:10;98889.78;;;2.63;70.57
66430;BME280;53242;51.694;10.006;2023-03-11T10:02:36;98888.09;;;2.45;70.78
66430;BME280;53242;51.694;10.006;2023-03-11T10:05:21;98885.38;;;2.63;70.42
66430;BME280;53242;51.694;10.006;2023-03-11T10:07:46;98894.00;;;2.56;70.71
66430;BME280;53242;51.694;10.006;2023-03-11T10:10:13;98898.41;;;2.63;70.39
66430;BME280;53242;51.694;10.006;2023-03-11T10:15:37;98895.91;;;2.54;70.16
66430;BME280;53242;51.694;10.006;2023-03-11T10:20:52;98898.75;;;2.60;69.87
66430;BME280;53242;51.694;10.006;2023-03-11T10:26:20;98903.25;;;2.50;69.16
66430;BME280;53242;51.694;10.006;2023-03-11T10:28:49;98903.75;;;2.54;70.42
66430;BME280;53242;51.694;10.006;2023-03-11T10:31:22;98900.72;;;2.75;69.22
66430;BME280;53242;51.694;10.006;2023-03-11T10:33:56;98895.34;;;2.68;69.89
66430;BME280;53242;51.694;10.006;2023-03-11T10:36:23;98904.56;;;2.54;68.87
66430;BME280;53242;51.694;10.006;2023-03-11T10:38:49;98907.44;;;2.43;68.44
66430;BME280;53242;51.694;10.006;2023-03-11T10:41:40;98897.59;;;2.63;67.88
66430;BME280;53242;51.694;10.006;2023-03-11T10:44:12;98896.06;;;3.11;67.77
66430;BME280;53242;51.694;10.006;2023-03-11T10:46:35;98893.00;;;3.16;67.55
66430;BME280;53242;51.694;10.006;2023-03-11T10:48:57;98904.44;;;3.23;67.29
66430;BME280;53242;51.694;10.006;2023-03-11T10:51:25;98899.97;;;3.07;67.63
66430;BME280;53242;51.694;10.006;2023-03-11T10:53:54;98904.47;;;2.80;68.54
66430;BME280;53242;51.694;10.006;2023-03-11T10:56:33;98910.53;;;2.81;66.41
66430;BME280;53242;51.694;10.006;2023-03-11T10:58:56;98902.97;;;3.45;66.71
66430;BME280;53242;51.694;10.006;2023-03-11T11:01:19;98903.13;;;3.52;66.53
66430;BME280;53242;51.694;10.006;2023-03-11T11:03:47;98908.97;;;3.46;62.88
66430;BME280;53242;51.694;10.006;2023-03-11T11:06:37;98905.56;;;3.45;63.42
66430;BME280;53242;51.694;10.006;2023-03-11T11:09:09;98915.66;;;3.24;63.66
66430;BME280;53242;51.694;10.006;2023-03-11T11:11:34;98908.47;;;3.09;63.42
66430;BME280;53242;51.694;10.006;2023-03-11T11:13:58;98908.63;;;3.16;63.76
66430;BME280;53242;51.694;10.006;2023-03-11T11:16:21;98916.81;;;3.38;62.58
66430;BME280;53242;51.694;10.006;2023-03-11T11:18:46;98914.38;;;3.36;63.01
66430;BME280;53242;51.694;10.006;2023-03-11T11:21:16;98920.88;;;3.73;61.48
66430;BME280;53242;51.694;10.006;2023-03-11T11:23:49;98918.28;;;3.57;62.12
66430;BME280;53242;51.694;10.006;2023-03-11T11:26:25;98913.22;;;3.47;62.08
66430;BME280;53242;51.694;10.006;2023-03-11T11:31:31;98924.81;;;3.36;61.93
66430;BME280;53242;51.694;10.006;2023-03-11T11:33:54;98923.16;;;3.27;62.22
66430;BME280;53242;51.694;10.006;2023-03-11T11:36:17;98930.19;;;3.68;62.19
66430;BME280;53242;51.694;10.006;2023-03-11T11:38:42;98931.75;;;4.18;60.74
66430;BME280;53242;51.694;10.006;2023-03-11T11:41:05;98925.41;;;4.13;60.07
66430;BME280;53242;51.694;10.006;2023-03-11T11:43:45;98923.66;;;3.88;59.29
66430;BME280;53242;51.694;10.006;2023-03-11T11:49:29;98921.72;;;4.47;60.45
66430;BME280;53242;51.694;10.006;2023-03-11T11:54:41;98921.59;;;4.32;59.92
66430;BME280;53242;51.694;10.006;2023-03-11T11:57:11;98914.22;;;4.43;59.44
66430;BME280;53242;51.694;10.006;2023-03-11T11:59:34;98916.34;;;4.40;59.35
66430;BME280;53242;51.694;10.006;2023-03-11T12:02:15;98917.63;;;3.88;57.92
66430;BME280;53242;51.694;10.006;2023-03-11T12:04:47;98922.03;;;3.95;56.59
66430;BME280;53242;51.694;10.006;2023-03-11T12:07:42;98925.50;;;4.36;58.08
66430;BME280;53242;51.694;10.006;2023-03-11T12:10:15;98925.81;;;4.33;58.68
66430;BME280;53242;51.694;10.006;2023-03-11T12:12:47;98926.91;;;3.99;56.97
66430;BME280;53242;51.694;10.006;2023-03-11T12:15:28;98927.56;;;4.01;55.63
66430;BME280;53242;51.694;10.006;2023-03-11T12:18:01;98931.75;;;4.18;57.17
66430;BME280;53242;51.694;10.006;2023-03-11T12:20:40;98925.69;;;4.26;58.34
66430;BME280;53242;51.694;10.006;2023-03-11T12:23:15;98913.72;;;4.40;57.72
66430;BME280;53242;51.694;10.006;2023-03-11T12:26:05;98911.78;;;4.42;56.67
66430;BME280;53242;51.694;10.006;2023-03-11T12:31:28;98919.09;;;4.86;56.28
66430;BME280;53242;51.694;10.006;2023-03-11T12:33:58;98921.56;;;4.80;56.69
66430;BME280;53242;51.694;10.006;2023-03-11T12:36:31;98916.53;;;4.78;57.16
66430;BME280;53242;51.694;10.006;2023-03-11T12:38:55;98927.81;;;5.02;56.07
66430;BME280;53242;51.694;10.006;2023-03-11T12:41:29;98922.84;;;5.15;54.70
66430;BME280;53242;51.694;10.006;2023-03-11T12:46:16;98915.41;;;5.04;54.94
66430;BME280;53242;51.694;10.006;2023-03-11T12:48:48;98912.03;;;5.18;54.83
66430;BME280;53242;51.694;10.006;2023-03-11T12:53:48;98907.31;;;5.14;54.22
66430;BME280;53242;51.694;10.006;2023-03-11T13:02:02;98911.16;;;5.03;53.41
66430;BME280;53242;51.694;10.006;2023-03-11T13:09:43;98928.75;;;4.38;53.79
66430;BME280;53242;51.694;10.006;2023-03-11T13:12:44;98925.19;;;4.22;52.07
66430;BME280;53242;51.694;10.006;2023-03-11T13:17:41;98929.91;;;4.35;51.55
66430;BME280;53242;51.694;10.006;2023-03-11T13:28:34;98934.72;;;4.94;52.06
66430;BME280;53242;51.694;10.006;2023-03-11T13:31:13;98933.22;;;4.69;52.14
66430;BME280;53242;51.694;10.006;2023-03-11T13:33:47;98938.47;;;4.60;52.59
66430;BME280;53242;51.694;10.006;2023-03-11T13:39:00;98950.34;;;4.71;49.83
66430;BME280;53242;51.694;10.006;2023-03-11T13:41:34;98952.94;;;4.80;51.54
66430;BME280;53242;51.694;10.006;2023-03-11T13:44:08;98954.72;;;4.87;51.67
66430;BME280;53242;51.694;10.006;2023-03-11T13:46:38;98951.63;;;4.84;51.54
66430;BME280;53242;51.694;10.006;2023-03-11T13:49:34;98957.13;;;4.49;50.61
66430;BME280;53242;51.694;10.006;2023-03-11T13:52:00;98956.47;;;4.55;50.98